sensor_id;sensor_type;location;lat;lon;timestamp;P1;durP1;ratioP1;P2;durP2;ratioP2
11829;SDS011;5972;42.134;24.718;2023-03-31T00:01:00;3.93;;;2.60;;
11829;SDS011;5972;42.134;24.718;2023-03-31T00:03:28;3.20;;;2.60;;
11829;SDS011;5972;42.134;24.718;2023-03-31T00:05:58;7.83;;;4.40;;
11829;SDS011;5972;42.134;24.718;2023-03-31T00:08:26;7.43;;;2.50;;
11829;SDS011;5972;42.134;24.718;2023-03-31T00:10:59;2.70;;;2.40;;
11829;SDS011;5972;42.134;24.718;2023-03-31T00:13:27;9.07;;;3.80;;
11829;SDS011;5972;42.134;24.718;2023-03-31T00:15:57;12.30;;;3.70;;
11829;SDS011;5972;42.134;24.718;2023-03-31T00:18:26;8.93;;;4.67;;
11829;SDS011;5972;42.134;24.718;2023-03-31T00:20:54;5.70;;;3.87;;
11829;SDS011;5972;42.134;24.718;2023-03-31T00:23:26;8.83;;;4.67;;
11829;SDS011;5972;42.134;24.718;2023-03-31T00:25:53;13.83;;;7.03;;
11829;SDS011;5972;42.134;24.718;2023-03-31T00:28:20;9.57;;;5.13;;
11829;SDS011;5972;42.134;24.718;2023-03-31T00:30:47;7.70;;;4.23;;
11829;SDS011;5972;42.134;24.718;2023-03-31T00:33:15;11.30;;;4.70;;
11829;SDS011;5972;42.134;24.718;2023-03-31T00:35:42;11.57;;;5.30;;
11829;SDS011;5972;42.134;24.718;2023-03-31T00:38:10;5.87;;;3.50;;
11829;SDS011;5972;42.134;24.718;2023-03-31T00:40:42;8.70;;;3.00;;
11829;SDS011;5972;42.134;24.718;2023-03-31T00:43:14;6.10;;;3.00;;
11829;SDS011;5972;42.134;24.718;2023-03-31T00:45:53;3.93;;;2.73;;
11829;SDS011;5972;42.134;24.718;2023-03-31T00:48:22;5.30;;;3.07;;
11829;SDS011;5972;42.134;24.718;2023-03-31T00:50:50;6.13;;;3.00;;
11829;SDS011;5972;42.134;24.718;2023-03-31T00:53:20;3.90;;;2.63;;
11829;SDS011;5972;42.134;24.718;2023-03-31T00:55:50;5.53;;;2.80;;
11829;SDS011;5972;42.134;24.718;2023-03-31T00:58:19;7.03;;;2.88;;
11829;SDS011;5972;42.134;24.718;2023-03-31T01:00:52;5.77;;;2.87;;
11829;SDS011;5972;42.134;24.718;2023-03-31T01:03:24;10.53;;;3.20;;
11829;SDS011;5972;42.134;24.718;2023-03-31T01:05:51;4.27;;;2.97;;
11829;SDS011;5972;42.134;24.718;2023-03-31T01:08:22;9.73;;;3.60;;
11829;SDS011;5972;42.134;24.718;2023-03-31T01:10:52;4.10;;;3.03;;
11829;SDS011;5972;42.134;24.718;2023-03-31T01:13:21;4.00;;;2.90;;
11829;SDS011;5972;42.134;24.718;2023-03-31T01:15:49;3.43;;;2.80;;
11829;SDS011;5972;42.134;24.718;2023-03-31T01:18:16;5.97;;;3.57;;
11829;SDS011;5972;42.134;24.718;2023-03-31T01:20:50;5.23;;;3.07;;
11829;SDS011;5972;42.134;24.718;2023-03-31T01:23:45;5.70;;;2.87;;
11829;SDS011;5972;42.134;24.718;2023-03-31T01:29:34;15.37;;;3.47;;
11829;SDS011;5972;42.134;24.718;2023-03-31T01:35:42;6.87;;;3.37;;
11829;SDS011;5972;42.134;24.718;2023-03-31T01:41:42;9.17;;;3.80;;
11829;SDS011;5972;42.134;24.718;2023-03-31T01:44:19;15.83;;;3.77;;
11829;SDS011;5972;42.134;24.718;2023-03-31T01:46:54;9.23;;;3.20;;
11829;SDS011;5972;42.134;24.718;2023-03-31T01:49:28;10.83;;;3.70;;
11829;SDS011;5972;42.134;24.718;2023-03-31T01:52:07;4.50;;;3.30;;
11829;SDS011;5972;42.134;24.718;2023-03-31T01:54:43;8.83;;;3.10;;
11829;SDS011;5972;42.134;24.718;2023-03-31T01:57:17;9.80;;;3.20;;
11829;SDS011;5972;42.134;24.718;2023-03-31T01:59:49;12.10;;;3.23;;
11829;SDS011;5972;42.134;24.718;2023-03-31T02:02:24;9.53;;;3.20;;
11829;SDS011;5972;42.134;24.718;2023-03-31T02:04:57;7.07;;;3.33;;
11829;SDS011;5972;42.134;24.718;2023-03-31T02:07:28;6.43;;;3.70;;
11829;SDS011;5972;42.134;24.718;2023-03-31T02:10:00;10.17;;;3.60;;
11829;SDS011;5972;42.134;24.718;2023-03-31T02:12:32;6.83;;;3.27;;
11829;SDS011;5972;42.134;24.718;2023-03-31T02:15:02;9.77;;;3.57;;
11829;SDS011;5972;42.134;24.718;2023-03-31T02:17:33;8.30;;;3.93;;
11829;SDS011;5972;42.134;24.718;2023-03-31T02:20:05;6.20;;;3.57;;
11829;SDS011;5972;42.134;24.718;2023-03-31T02:22:37;10.90;;;4.83;;
11829;SDS011;5972;42.134;24.718;2023-03-31T02:25:08;8.40;;;3.73;;
11829;SDS011;5972;42.134;24.718;2023-03-31T02:27:40;8.20;;;4.00;;
11829;SDS011;5972;42.134;24.718;2023-03-31T02:30:08;7.53;;;3.97;;
11829;SDS011;5972;42.134;24.718;2023-03-31T02:32:37;9.67;;;3.70;;
11829;SDS011;5972;42.134;24.718;2023-03-31T02:35:06;7.57;;;3.90;;
11829;SDS011;5972;42.134;24.718;2023-03-31T02:37:35;13.73;;;4.03;;
11829;SDS011;5972;42.134;24.718;2023-03-31T02:40:04;9.70;;;4.50;;
11829;SDS011;5972;42.134;24.718;2023-03-31T02:42:34;6.63;;;3.93;;
11829;SDS011;5972;42.134;24.718;2023-03-31T02:45:04;8.83;;;4.10;;
11829;SDS011;5972;42.134;24.718;2023-03-31T02:47:33;10.03;;;4.50;;
11829;SDS011;5972;42.134;24.718;2023-03-31T02:50:00;8.80;;;4.17;;
11829;SDS011;5972;42.134;24.718;2023-03-31T02:52:33;12.80;;;4.50;;
11829;SDS011;5972;42.134;24.718;2023-03-31T02:58:31;7.73;;;4.20;;
11829;SDS011;5972;42.134;24.718;2023-03-31T03:01:12;19.57;;;4.70;;
11829;SDS011;5972;42.134;24.718;2023-03-31T03:03:54;10.13;;;4.20;;
11829;SDS011;5972;42.134;24.718;2023-03-31T03:06:31;6.60;;;4.03;;
11829;SDS011;5972;42.134;24.718;2023-03-31T03:09:12;8.27;;;5.00;;
11829;SDS011;5972;42.134;24.718;2023-03-31T03:11:50;13.70;;;5.27;;
11829;SDS011;5972;42.134;24.718;2023-03-31T03:14:26;12.30;;;4.40;;
11829;SDS011;5972;42.134;24.718;2023-03-31T03:17:00;11.27;;;4.10;;
11829;SDS011;5972;42.134;24.718;2023-03-31T03:19:31;8.60;;;4.67;;
11829;SDS011;5972;42.134;24.718;2023-03-31T03:21:59;8.17;;;3.80;;
11829;SDS011;5972;42.134;24.718;2023-03-31T03:24:26;10.33;;;3.90;;
11829;SDS011;5972;42.134;24.718;2023-03-31T03:26:53;8.23;;;4.40;;
11829;SDS011;5972;42.134;24.718;2023-03-31T03:29:20;17.67;;;4.70;;
11829;SDS011;5972;42.134;24.718;2023-03-31T03:31:47;10.93;;;5.00;;
11829;SDS011;5972;42.134;24.718;2023-03-31T03:34:16;17.13;;;6.00;;
11829;SDS011;5972;42.134;24.718;2023-03-31T03:36:44;10.90;;;5.97;;
11829;SDS011;5972;42.134;24.718;2023-03-31T03:39:11;12.97;;;5.50;;
11829;SDS011;5972;42.134;24.718;2023-03-31T03:41:38;12.70;;;5.33;;
11829;SDS011;5972;42.134;24.718;2023-03-31T03:44:05;11.27;;;5.20;;
11829;SDS011;5972;42.134;24.718;2023-03-31T03:46:32;9.30;;;4.50;;
11829;SDS011;5972;42.134;24.718;2023-03-31T03:48:58;9.23;;;4.13;;
11829;SDS011;5972;42.134;24.718;2023-03-31T03:51:27;10.17;;;4.40;;
11829;SDS011;5972;42.134;24.718;2023-03-31T03:53:53;16.43;;;4.80;;
11829;SDS011;5972;42.134;24.718;2023-03-31T03:56:20;5.67;;;4.23;;
11829;SDS011;5972;42.134;24.718;2023-03-31T03:58:47;11.13;;;4.33;;
11829;SDS011;5972;42.134;24.718;2023-03-31T04:01:14;11.67;;;4.70;;
11829;SDS011;5972;42.134;24.718;2023-03-31T04:03:40;10.67;;;5.80;;
11829;SDS011;5972;42.134;24.718;2023-03-31T04:06:07;8.47;;;5.10;;
11829;SDS011;5972;42.134;24.718;2023-03-31T04:08:35;7.80;;;5.57;;
11829;SDS011;5972;42.134;24.718;2023-03-31T04:11:12;11.37;;;5.87;;
11829;SDS011;5972;42.134;24.718;2023-03-31T04:13:41;8.77;;;5.33;;
11829;SDS011;5972;42.134;24.718;2023-03-31T04:16:08;14.07;;;6.13;;
11829;SDS011;5972;42.134;24.718;2023-03-31T04:18:35;12.30;;;5.40;;
11829;SDS011;5972;42.134;24.718;2023-03-31T04:21:07;8.87;;;5.43;;
11829;SDS011;5972;42.134;24.718;2023-03-31T04:23:38;12.63;;;5.90;;
11829;SDS011;5972;42.134;24.718;2023-03-31T04:26:10;12.23;;;5.80;;
11829;SDS011;5972;42.134;24.718;2023-03-31T04:28:38;8.33;;;5.90;;
11829;SDS011;5972;42.134;24.718;2023-03-31T04:31:07;12.43;;;6.33;;
11829;SDS011;5972;42.134;24.718;2023-03-31T04:33:40;12.53;;;6.53;;
11829;SDS011;5972;42.134;24.718;2023-03-31T04:36:10;10.10;;;5.70;;
11829;SDS011;5972;42.134;24.718;2023-03-31T04:38:43;11.07;;;5.23;;
11829;SDS011;5972;42.134;24.718;2023-03-31T04:41:12;8.03;;;5.73;;
11829;SDS011;5972;42.134;24.718;2023-03-31T04:43:39;11.07;;;5.67;;
11829;SDS011;5972;42.134;24.718;2023-03-31T04:46:05;6.80;;;5.43;;
11829;SDS011;5972;42.134;24.718;2023-03-31T04:48:32;16.80;;;6.17;;
11829;SDS011;5972;42.134;24.718;2023-03-31T04:50:59;9.77;;;6.40;;
11829;SDS011;5972;42.134;24.718;2023-03-31T04:53:26;10.87;;;5.77;;
11829;SDS011;5972;42.134;24.718;2023-03-31T04:55:54;7.37;;;5.47;;
11829;SDS011;5972;42.134;24.718;2023-03-31T04:58:21;9.37;;;5.43;;
11829;SDS011;5972;42.134;24.718;2023-03-31T05:00:48;17.23;;;5.23;;
11829;SDS011;5972;42.134;24.718;2023-03-31T05:03:15;8.37;;;5.00;;
11829;SDS011;5972;42.134;24.718;2023-03-31T05:05:41;16.03;;;5.03;;
11829;SDS011;5972;42.134;24.718;2023-03-31T05:08:08;8.23;;;5.67;;
11829;SDS011;5972;42.134;24.718;2023-03-31T05:10:35;8.57;;;5.73;;
11829;SDS011;5972;42.134;24.718;2023-03-31T05:13:03;7.50;;;5.00;;
11829;SDS011;5972;42.134;24.718;2023-03-31T05:15:30;10.30;;;5.20;;
11829;SDS011;5972;42.134;24.718;2023-03-31T05:17:57;13.53;;;5.70;;
11829;SDS011;5972;42.134;24.718;2023-03-31T05:20:24;13.87;;;5.37;;
11829;SDS011;5972;42.134;24.718;2023-03-31T05:22:51;10.47;;;5.53;;
11829;SDS011;5972;42.134;24.718;2023-03-31T05:25:17;12.33;;;5.67;;
11829;SDS011;5972;42.134;24.718;2023-03-31T05:27:45;12.13;;;5.93;;
11829;SDS011;5972;42.134;24.718;2023-03-31T05:30:13;10.67;;;5.53;;
11829;SDS011;5972;42.134;24.718;2023-03-31T05:32:41;8.37;;;5.57;;
11829;SDS011;5972;42.134;24.718;2023-03-31T05:35:08;12.10;;;5.07;;
11829;SDS011;5972;42.134;24.718;2023-03-31T05:37:36;7.37;;;4.90;;
11829;SDS011;5972;42.134;24.718;2023-03-31T05:40:03;12.43;;;4.83;;
11829;SDS011;5972;42.134;24.718;2023-03-31T05:42:30;9.87;;;4.90;;
11829;SDS011;5972;42.134;24.718;2023-03-31T05:44:57;7.83;;;4.77;;
11829;SDS011;5972;42.134;24.718;2023-03-31T05:47:25;8.65;;;5.03;;
11829;SDS011;5972;42.134;24.718;2023-03-31T05:49:52;7.50;;;4.83;;
11829;SDS011;5972;42.134;24.718;2023-03-31T05:52:18;13.60;;;5.60;;
11829;SDS011;5972;42.134;24.718;2023-03-31T05:54:45;12.67;;;7.03;;
11829;SDS011;5972;42.134;24.718;2023-03-31T05:57:12;13.05;;;5.43;;
11829;SDS011;5972;42.134;24.718;2023-03-31T05:59:39;12.43;;;6.17;;
11829;SDS011;5972;42.134;24.718;2023-03-31T06:02:06;18.17;;;5.40;;
11829;SDS011;5972;42.134;24.718;2023-03-31T06:04:35;9.33;;;4.90;;
11829;SDS011;5972;42.134;24.718;2023-03-31T06:07:02;9.98;;;4.85;;
11829;SDS011;5972;42.134;24.718;2023-03-31T06:09:29;11.75;;;4.85;;
11829;SDS011;5972;42.134;24.718;2023-03-31T06:11:56;18.13;;;5.83;;
11829;SDS011;5972;42.134;24.718;2023-03-31T06:14:23;18.40;;;5.50;;
11829;SDS011;5972;42.134;24.718;2023-03-31T06:16:50;13.02;;;5.88;;
11829;SDS011;5972;42.134;24.718;2023-03-31T06:19:17;15.53;;;6.23;;
11829;SDS011;5972;42.134;24.718;2023-03-31T06:21:45;12.38;;;5.40;;
11829;SDS011;5972;42.134;24.718;2023-03-31T06:24:12;16.77;;;5.60;;
11829;SDS011;5972;42.134;24.718;2023-03-31T06:26:39;15.25;;;5.38;;
11829;SDS011;5972;42.134;24.718;2023-03-31T06:29:06;17.85;;;5.70;;
11829;SDS011;5972;42.134;24.718;2023-03-31T06:31:32;24.47;;;7.10;;
11829;SDS011;5972;42.134;24.718;2023-03-31T06:34:00;14.27;;;6.93;;
11829;SDS011;5972;42.134;24.718;2023-03-31T06:36:27;13.70;;;7.30;;
11829;SDS011;5972;42.134;24.718;2023-03-31T06:38:55;14.48;;;7.80;;
11829;SDS011;5972;42.134;24.718;2023-03-31T06:41:22;20.48;;;7.60;;
11829;SDS011;5972;42.134;24.718;2023-03-31T06:43:48;40.60;;;16.50;;
11829;SDS011;5972;42.134;24.718;2023-03-31T06:46:15;18.92;;;8.65;;
11829;SDS011;5972;42.134;24.718;2023-03-31T06:48:42;19.13;;;7.93;;
11829;SDS011;5972;42.134;24.718;2023-03-31T06:51:09;19.58;;;6.75;;
11829;SDS011;5972;42.134;24.718;2023-03-31T06:53:36;12.65;;;5.90;;
11829;SDS011;5972;42.134;24.718;2023-03-31T06:56:04;13.55;;;5.40;;
11829;SDS011;5972;42.134;24.718;2023-03-31T06:58:32;14.77;;;5.95;;
11829;SDS011;5972;42.134;24.718;2023-03-31T07:01:00;13.02;;;5.85;;
11829;SDS011;5972;42.134;24.718;2023-03-31T07:03:28;21.33;;;6.07;;
11829;SDS011;5972;42.134;24.718;2023-03-31T07:05:55;15.32;;;7.13;;
11829;SDS011;5972;42.134;24.718;2023-03-31T07:08:22;20.85;;;8.82;;
11829;SDS011;5972;42.134;24.718;2023-03-31T07:10:52;19.33;;;9.43;;
11829;SDS011;5972;42.134;24.718;2023-03-31T07:13:21;16.70;;;9.32;;
11829;SDS011;5972;42.134;24.718;2023-03-31T07:15:48;17.67;;;8.98;;
11829;SDS011;5972;42.134;24.718;2023-03-31T07:18:16;26.98;;;8.18;;
11829;SDS011;5972;42.134;24.718;2023-03-31T07:20:46;20.75;;;9.25;;
11829;SDS011;5972;42.134;24.718;2023-03-31T07:23:14;13.68;;;8.60;;
11829;SDS011;5972;42.134;24.718;2023-03-31T07:25:41;28.75;;;8.82;;
11829;SDS011;5972;42.134;24.718;2023-03-31T07:28:09;17.70;;;8.20;;
11829;SDS011;5972;42.134;24.718;2023-03-31T07:30:37;17.58;;;9.18;;
11829;SDS011;5972;42.134;24.718;2023-03-31T07:33:05;14.65;;;7.88;;
11829;SDS011;5972;42.134;24.718;2023-03-31T07:35:32;15.40;;;7.38;;
11829;SDS011;5972;42.134;24.718;2023-03-31T07:38:02;21.80;;;8.10;;
11829;SDS011;5972;42.134;24.718;2023-03-31T07:40:29;20.75;;;8.75;;
11829;SDS011;5972;42.134;24.718;2023-03-31T07:42:56;13.18;;;7.63;;
11829;SDS011;5972;42.134;24.718;2023-03-31T07:45:23;16.15;;;8.13;;
11829;SDS011;5972;42.134;24.718;2023-03-31T07:47:53;17.40;;;6.78;;
11829;SDS011;5972;42.134;24.718;2023-03-31T07:50:20;19.13;;;7.65;;
11829;SDS011;5972;42.134;24.718;2023-03-31T07:52:48;16.90;;;7.43;;
11829;SDS011;5972;42.134;24.718;2023-03-31T07:55:15;19.13;;;7.88;;
11829;SDS011;5972;42.134;24.718;2023-03-31T07:57:43;19.00;;;7.50;;
11829;SDS011;5972;42.134;24.718;2023-03-31T08:00:12;24.60;;;7.88;;
11829;SDS011;5972;42.134;24.718;2023-03-31T08:02:41;20.33;;;7.57;;
11829;SDS011;5972;42.134;24.718;2023-03-31T08:05:10;13.15;;;7.07;;
11829;SDS011;5972;42.134;24.718;2023-03-31T08:07:40;14.50;;;7.20;;
11829;SDS011;5972;42.134;24.718;2023-03-31T08:10:10;15.68;;;7.45;;
11829;SDS011;5972;42.134;24.718;2023-03-31T08:12:38;18.30;;;6.78;;
11829;SDS011;5972;42.134;24.718;2023-03-31T08:15:06;18.65;;;7.25;;
11829;SDS011;5972;42.134;24.718;2023-03-31T08:17:33;19.77;;;6.10;;
11829;SDS011;5972;42.134;24.718;2023-03-31T08:20:00;19.27;;;6.45;;
11829;SDS011;5972;42.134;24.718;2023-03-31T08:22:30;7.90;;;4.70;;
11829;SDS011;5972;42.134;24.718;2023-03-31T08:24:56;12.45;;;5.43;;
11829;SDS011;5972;42.134;24.718;2023-03-31T08:27:23;12.60;;;5.57;;
11829;SDS011;5972;42.134;24.718;2023-03-31T08:29:50;10.30;;;4.80;;
11829;SDS011;5972;42.134;24.718;2023-03-31T08:32:17;11.07;;;5.50;;
11829;SDS011;5972;42.134;24.718;2023-03-31T08:34:47;10.65;;;5.30;;
11829;SDS011;5972;42.134;24.718;2023-03-31T08:37:13;14.93;;;5.68;;
11829;SDS011;5972;42.134;24.718;2023-03-31T08:39:41;11.70;;;5.70;;
11829;SDS011;5972;42.134;24.718;2023-03-31T08:42:09;9.73;;;5.43;;
11829;SDS011;5972;42.134;24.718;2023-03-31T08:44:40;15.85;;;5.65;;
11829;SDS011;5972;42.134;24.718;2023-03-31T08:47:12;10.55;;;5.45;;
11829;SDS011;5972;42.134;24.718;2023-03-31T08:49:44;12.15;;;5.57;;
11829;SDS011;5972;42.134;24.718;2023-03-31T08:52:18;8.05;;;5.20;;
11829;SDS011;5972;42.134;24.718;2023-03-31T08:54:51;8.73;;;4.68;;
11829;SDS011;5972;42.134;24.718;2023-03-31T08:57:24;9.77;;;4.97;;
11829;SDS011;5972;42.134;24.718;2023-03-31T08:59:52;8.75;;;4.43;;
11829;SDS011;5972;42.134;24.718;2023-03-31T09:02:24;7.80;;;4.13;;
11829;SDS011;5972;42.134;24.718;2023-03-31T09:05:05;5.10;;;3.03;;
11829;SDS011;5972;42.134;24.718;2023-03-31T09:07:54;7.50;;;3.15;;
11829;SDS011;5972;42.134;24.718;2023-03-31T09:10:33;6.95;;;3.38;;
11829;SDS011;5972;42.134;24.718;2023-03-31T09:13:07;4.80;;;3.08;;
11829;SDS011;5972;42.134;24.718;2023-03-31T09:15:49;5.75;;;3.50;;
11829;SDS011;5972;42.134;24.718;2023-03-31T09:18:24;7.60;;;3.50;;
11829;SDS011;5972;42.134;24.718;2023-03-31T09:20:56;7.88;;;3.25;;
11829;SDS011;5972;42.134;24.718;2023-03-31T09:23:28;3.90;;;2.70;;
11829;SDS011;5972;42.134;24.718;2023-03-31T09:26:01;3.13;;;2.63;;
11829;SDS011;5972;42.134;24.718;2023-03-31T09:28:31;4.57;;;3.05;;
11829;SDS011;5972;42.134;24.718;2023-03-31T09:31:02;3.92;;;2.53;;
11829;SDS011;5972;42.134;24.718;2023-03-31T09:33:33;6.10;;;2.80;;
11829;SDS011;5972;42.134;24.718;2023-03-31T09:36:07;14.35;;;3.22;;
11829;SDS011;5972;42.134;24.718;2023-03-31T09:38:40;9.10;;;2.85;;
11829;SDS011;5972;42.134;24.718;2023-03-31T09:41:09;4.25;;;2.63;;
11829;SDS011;5972;42.134;24.718;2023-03-31T09:43:38;8.50;;;2.97;;
11829;SDS011;5972;42.134;24.718;2023-03-31T09:46:09;11.73;;;2.80;;
11829;SDS011;5972;42.134;24.718;2023-03-31T09:48:44;4.45;;;2.42;;
11829;SDS011;5972;42.134;24.718;2023-03-31T09:51:17;10.05;;;2.95;;
11829;SDS011;5972;42.134;24.718;2023-03-31T09:53:50;12.38;;;2.97;;
11829;SDS011;5972;42.134;24.718;2023-03-31T09:56:32;5.90;;;2.58;;
11829;SDS011;5972;42.134;24.718;2023-03-31T09:59:12;6.10;;;3.00;;
11829;SDS011;5972;42.134;24.718;2023-03-31T10:01:41;6.30;;;2.58;;
11829;SDS011;5972;42.134;24.718;2023-03-31T10:04:14;4.97;;;2.92;;
11829;SDS011;5972;42.134;24.718;2023-03-31T10:06:46;6.65;;;3.67;;
11829;SDS011;5972;42.134;24.718;2023-03-31T10:09:13;8.02;;;3.67;;
11829;SDS011;5972;42.134;24.718;2023-03-31T10:11:51;7.68;;;3.88;;
11829;SDS011;5972;42.134;24.718;2023-03-31T10:14:23;5.95;;;3.25;;
11829;SDS011;5972;42.134;24.718;2023-03-31T10:16:53;6.03;;;3.42;;
11829;SDS011;5972;42.134;24.718;2023-03-31T10:19:21;4.00;;;3.13;;
11829;SDS011;5972;42.134;24.718;2023-03-31T10:21:54;6.72;;;3.25;;
11829;SDS011;5972;42.134;24.718;2023-03-31T10:24:22;6.13;;;2.97;;
11829;SDS011;5972;42.134;24.718;2023-03-31T10:26:51;4.43;;;3.20;;
11829;SDS011;5972;42.134;24.718;2023-03-31T10:29:21;3.50;;;3.20;;
11829;SDS011;5972;42.134;24.718;2023-03-31T10:31:50;9.40;;;3.72;;
11829;SDS011;5972;42.134;24.718;2023-03-31T10:34:17;3.53;;;2.78;;
11829;SDS011;5972;42.134;24.718;2023-03-31T10:36:46;4.70;;;3.88;;
11829;SDS011;5972;42.134;24.718;2023-03-31T10:39:16;5.43;;;3.40;;
11829;SDS011;5972;42.134;24.718;2023-03-31T10:41:47;6.35;;;3.85;;
11829;SDS011;5972;42.134;24.718;2023-03-31T10:47:03;7.60;;;3.30;;
11829;SDS011;5972;42.134;24.718;2023-03-31T10:49:42;9.18;;;3.60;;
11829;SDS011;5972;42.134;24.718;2023-03-31T10:52:14;4.20;;;3.10;;
11829;SDS011;5972;42.134;24.718;2023-03-31T10:54:48;9.18;;;3.70;;
11829;SDS011;5972;42.134;24.718;2023-03-31T10:57:18;9.23;;;3.70;;
11829;SDS011;5972;42.134;24.718;2023-03-31T11:00:05;7.53;;;3.25;;
11829;SDS011;5972;42.134;24.718;2023-03-31T11:02:43;5.57;;;3.47;;
11829;SDS011;5972;42.134;24.718;2023-03-31T11:05:28;11.75;;;3.42;;
11829;SDS011;5972;42.134;24.718;2023-03-31T11:08:09;9.55;;;3.53;;
11829;SDS011;5972;42.134;24.718;2023-03-31T11:10:57;4.72;;;3.40;;
11829;SDS011;5972;42.134;24.718;2023-03-31T11:13:40;11.60;;;3.97;;
11829;SDS011;5972;42.134;24.718;2023-03-31T11:16:17;7.00;;;4.07;;
11829;SDS011;5972;42.134;24.718;2023-03-31T11:18:54;8.55;;;3.10;;
11829;SDS011;5972;42.134;24.718;2023-03-31T11:21:43;7.53;;;3.33;;
11829;SDS011;5972;42.134;24.718;2023-03-31T11:24:23;7.13;;;3.80;;
11829;SDS011;5972;42.134;24.718;2023-03-31T11:27:02;5.03;;;3.50;;
11829;SDS011;5972;42.134;24.718;2023-03-31T11:29:42;5.63;;;3.38;;
11829;SDS011;5972;42.134;24.718;2023-03-31T11:32:27;7.68;;;3.78;;
11829;SDS011;5972;42.134;24.718;2023-03-31T11:35:15;7.40;;;3.67;;
11829;SDS011;5972;42.134;24.718;2023-03-31T11:37:57;6.25;;;3.05;;
11829;SDS011;5972;42.134;24.718;2023-03-31T11:40:39;5.13;;;3.42;;
11829;SDS011;5972;42.134;24.718;2023-03-31T11:43:16;6.78;;;3.15;;
11829;SDS011;5972;42.134;24.718;2023-03-31T11:45:51;6.32;;;2.58;;
11829;SDS011;5972;42.134;24.718;2023-03-31T11:48:25;6.90;;;2.83;;
11829;SDS011;5972;42.134;24.718;2023-03-31T11:51:00;5.13;;;2.70;;
11829;SDS011;5972;42.134;24.718;2023-03-31T11:53:31;6.03;;;2.85;;
11829;SDS011;5972;42.134;24.718;2023-03-31T11:56:00;8.25;;;3.08;;
11829;SDS011;5972;42.134;24.718;2023-03-31T11:58:29;8.93;;;2.60;;
11829;SDS011;5972;42.134;24.718;2023-03-31T12:01:04;3.95;;;2.35;;
11829;SDS011;5972;42.134;24.718;2023-03-31T12:03:41;4.40;;;2.70;;
11829;SDS011;5972;42.134;24.718;2023-03-31T12:06:15;9.90;;;2.38;;
11829;SDS011;5972;42.134;24.718;2023-03-31T12:08:46;4.65;;;2.75;;
11829;SDS011;5972;42.134;24.718;2023-03-31T12:11:21;9.93;;;2.70;;
11829;SDS011;5972;42.134;24.718;2023-03-31T12:13:54;5.65;;;2.60;;
11829;SDS011;5972;42.134;24.718;2023-03-31T12:16:28;4.07;;;2.65;;
11829;SDS011;5972;42.134;24.718;2023-03-31T12:19:05;6.20;;;2.65;;
11829;SDS011;5972;42.134;24.718;2023-03-31T12:21:38;4.32;;;2.53;;
11829;SDS011;5972;42.134;24.718;2023-03-31T12:24:09;5.60;;;2.40;;
11829;SDS011;5972;42.134;24.718;2023-03-31T12:26:39;6.93;;;2.50;;
11829;SDS011;5972;42.134;24.718;2023-03-31T12:29:16;2.95;;;2.28;;
11829;SDS011;5972;42.134;24.718;2023-03-31T12:31:51;5.70;;;2.42;;
11829;SDS011;5972;42.134;24.718;2023-03-31T12:34:21;17.20;;;3.63;;
11829;SDS011;5972;42.134;24.718;2023-03-31T12:36:54;2.95;;;1.92;;
11829;SDS011;5972;42.134;24.718;2023-03-31T12:39:36;7.45;;;2.22;;
11829;SDS011;5972;42.134;24.718;2023-03-31T12:42:23;2.42;;;1.90;;
11829;SDS011;5972;42.134;24.718;2023-03-31T12:45:06;4.25;;;1.75;;
11829;SDS011;5972;42.134;24.718;2023-03-31T12:47:44;4.32;;;1.60;;
11829;SDS011;5972;42.134;24.718;2023-03-31T12:50:28;7.60;;;1.80;;
11829;SDS011;5972;42.134;24.718;2023-03-31T12:53:09;5.05;;;1.77;;
11829;SDS011;5972;42.134;24.718;2023-03-31T12:55:44;5.18;;;1.67;;
11829;SDS011;5972;42.134;24.718;2023-03-31T13:01:13;5.05;;;1.90;;
11829;SDS011;5972;42.134;24.718;2023-03-31T13:03:43;2.67;;;1.92;;
11829;SDS011;5972;42.134;24.718;2023-03-31T13:09:40;6.05;;;1.92;;
11829;SDS011;5972;42.134;24.718;2023-03-31T13:12:15;4.47;;;2.00;;
11829;SDS011;5972;42.134;24.718;2023-03-31T13:14:44;4.13;;;1.98;;
11829;SDS011;5972;42.134;24.718;2023-03-31T13:17:31;4.60;;;1.95;;
11829;SDS011;5972;42.134;24.718;2023-03-31T13:20:21;5.25;;;1.80;;
11829;SDS011;5972;42.134;24.718;2023-03-31T13:23:00;7.15;;;1.90;;
11829;SDS011;5972;42.134;24.718;2023-03-31T13:28:16;2.90;;;1.48;;
11829;SDS011;5972;42.134;24.718;2023-03-31T13:30:52;3.50;;;1.75;;
11829;SDS011;5972;42.134;24.718;2023-03-31T13:33:30;4.85;;;1.70;;
11829;SDS011;5972;42.134;24.718;2023-03-31T13:36:06;6.63;;;1.50;;
11829;SDS011;5972;42.134;24.718;2023-03-31T13:38:49;2.85;;;1.60;;
11829;SDS011;5972;42.134;24.718;2023-03-31T13:41:29;5.95;;;1.95;;
11829;SDS011;5972;42.134;24.718;2023-03-31T13:50:22;5.50;;;1.67;;
11829;SDS011;5972;42.134;24.718;2023-03-31T13:53:27;4.72;;;1.92;;
11829;SDS011;5972;42.134;24.718;2023-03-31T13:59:31;3.50;;;1.75;;
11829;SDS011;5972;42.134;24.718;2023-03-31T14:05:19;4.53;;;2.10;;
11829;SDS011;5972;42.134;24.718;2023-03-31T14:07:52;5.63;;;1.92;;
11829;SDS011;5972;42.134;24.718;2023-03-31T14:10:25;5.25;;;2.03;;
11829;SDS011;5972;42.134;24.718;2023-03-31T14:13:06;4.65;;;2.30;;
11829;SDS011;5972;42.134;24.718;2023-03-31T14:15:34;6.40;;;2.20;;
11829;SDS011;5972;42.134;24.718;2023-03-31T14:18:03;3.67;;;2.00;;
11829;SDS011;5972;42.134;24.718;2023-03-31T14:20:32;4.35;;;2.00;;
11829;SDS011;5972;42.134;24.718;2023-03-31T14:23:09;7.25;;;2.15;;
11829;SDS011;5972;42.134;24.718;2023-03-31T14:25:46;4.10;;;1.88;;
11829;SDS011;5972;42.134;24.718;2023-03-31T14:28:24;4.90;;;2.13;;
11829;SDS011;5972;42.134;24.718;2023-03-31T14:31:06;3.80;;;1.83;;
11829;SDS011;5972;42.134;24.718;2023-03-31T14:33:46;8.90;;;2.13;;
11829;SDS011;5972;42.134;24.718;2023-03-31T14:36:29;6.63;;;1.67;;
11829;SDS011;5972;42.134;24.718;2023-03-31T14:39:03;5.35;;;1.83;;
11829;SDS011;5972;42.134;24.718;2023-03-31T14:41:31;11.35;;;2.20;;
11829;SDS011;5972;42.134;24.718;2023-03-31T14:44:03;5.55;;;2.25;;
11829;SDS011;5972;42.134;24.718;2023-03-31T14:46:34;5.22;;;2.33;;
11829;SDS011;5972;42.134;24.718;2023-03-31T14:49:05;4.78;;;1.75;;
11829;SDS011;5972;42.134;24.718;2023-03-31T14:51:41;3.22;;;1.73;;
11829;SDS011;5972;42.134;24.718;2023-03-31T14:54:13;5.63;;;1.85;;
11829;SDS011;5972;42.134;24.718;2023-03-31T14:56:42;4.97;;;2.47;;
11829;SDS011;5972;42.134;24.718;2023-03-31T14:59:15;4.88;;;1.85;;
11829;SDS011;5972;42.134;24.718;2023-03-31T15:01:46;4.78;;;1.77;;
11829;SDS011;5972;42.134;24.718;2023-03-31T15:04:15;4.18;;;1.70;;
11829;SDS011;5972;42.134;24.718;2023-03-31T15:06:46;6.35;;;2.40;;
11829;SDS011;5972;42.134;24.718;2023-03-31T15:09:17;4.07;;;2.08;;
11829;SDS011;5972;42.134;24.718;2023-03-31T15:11:46;2.88;;;1.80;;
11829;SDS011;5972;42.134;24.718;2023-03-31T15:14:20;5.38;;;1.98;;
11829;SDS011;5972;42.134;24.718;2023-03-31T15:16:48;7.68;;;2.13;;
11829;SDS011;5972;42.134;24.718;2023-03-31T15:19:16;6.13;;;2.00;;
11829;SDS011;5972;42.134;24.718;2023-03-31T15:21:45;5.47;;;2.63;;
11829;SDS011;5972;42.134;24.718;2023-03-31T15:24:18;5.18;;;2.58;;
11829;SDS011;5972;42.134;24.718;2023-03-31T15:26:46;6.35;;;2.03;;
11829;SDS011;5972;42.134;24.718;2023-03-31T15:29:20;4.80;;;2.00;;
11829;SDS011;5972;42.134;24.718;2023-03-31T15:31:50;3.85;;;1.77;;
11829;SDS011;5972;42.134;24.718;2023-03-31T15:34:19;5.72;;;1.80;;
11829;SDS011;5972;42.134;24.718;2023-03-31T15:36:49;6.13;;;2.10;;
11829;SDS011;5972;42.134;24.718;2023-03-31T15:39:18;2.80;;;2.00;;
11829;SDS011;5972;42.134;24.718;2023-03-31T15:41:45;3.88;;;1.85;;
11829;SDS011;5972;42.134;24.718;2023-03-31T15:44:35;5.57;;;1.83;;
11829;SDS011;5972;42.134;24.718;2023-03-31T15:47:07;4.95;;;2.17;;